Time;durP1;ratioP1;P1;durP2;ratioP2;P2;SDS_P1;SDS_P2;PMS_P1;PMS_P2;Temp;Humidity;BMP_temperature;BMP_pressure;BME280_temperature;BME280_humidity;BME280_pressure;Samples;Min_cycle;Max_cycle;Signal;HPM_P1;HPM_P2
2024/01/13 00:00:15;;;;;;;4.28;3.47;;;4.10;99.90;;;;;;5089471;28;20083;-66
2024/01/13 00:02:41;;;;;;;4.20;3.50;;;4.10;99.90;;;;;;5089199;28;20050;-66
2024/01/13 00:05:07;;;;;;;5.68;4.72;;;4.10;99.90;;;;;;5088844;28;20035;-66
2024/01/13 00:07:32;;;;;;;6.00;4.13;;;4.00;99.90;;;;;;5070463;28;20116;-66
2024/01/13 00:09:58;;;;;;;5.45;3.85;;;4.10;99.90;;;;;;5070733;28;20055;-67
2024/01/13 00:12:24;;;;;;;6.95;4.47;;;4.00;99.90;;;;;;5089181;28;20052;-67
2024/01/13 00:14:51;;;;;;;4.50;3.60;;;4.00;99.90;;;;;;5088890;28;20517;-67
2024/01/13 00:17:17;;;;;;;4.43;3.63;;;4.00;99.90;;;;;;5070216;28;20044;-67
2024/01/13 00:19:42;;;;;;;5.38;3.90;;;4.00;99.90;;;;;;5089018;28;20040;-67
2024/01/13 00:22:08;;;;;;;3.70;3.30;;;4.00;99.90;;;;;;5088388;28;20040;-67
2024/01/13 00:24:34;;;;;;;4.55;3.42;;;4.00;99.90;;;;;;5088743;28;20075;-67
2024/01/13 00:26:59;;;;;;;4.10;3.15;;;4.00;99.90;;;;;;5070345;28;20040;-67
2024/01/13 00:29:25;;;;;;;5.60;3.65;;;4.00;99.90;;;;;;5088553;28;20176;-67
2024/01/13 00:31:51;;;;;;;3.33;2.97;;;4.00;99.90;;;;;;5088670;28;20047;-67
2024/01/13 00:34:16;;;;;;;4.50;2.92;;;3.90;99.90;;;;;;5070459;28;20526;-67
2024/01/13 00:36:42;;;;;;;3.78;3.22;;;4.00;99.90;;;;;;5088474;28;20476;-67
2024/01/13 00:39:08;;;;;;;3.60;2.67;;;3.90;99.90;;;;;;5088357;28;20047;-67
2024/01/13 00:41:34;;;;;;;2.80;2.53;;;3.90;99.90;;;;;;5088357;28;20044;-67
2024/01/13 00:44:00;;;;;;;3.45;2.47;;;3.90;99.90;;;;;;5070161;28;20183;-67
2024/01/13 00:46:26;;;;;;;2.63;2.42;;;3.90;99.90;;;;;;5088689;28;20207;-68
2024/01/13 00:48:52;;;;;;;2.97;2.45;;;3.80;99.90;;;;;;5070279;28;20067;-67
2024/01/13 00:51:18;;;;;;;2.50;2.30;;;3.90;99.90;;;;;;5088102;28;20044;-67
2024/01/13 00:53:43;;;;;;;3.38;2.70;;;3.90;99.90;;;;;;5088427;28;20028;-67
2024/01/13 00:56:10;;;;;;;3.42;2.70;;;3.90;99.90;;;;;;5088421;28;20050;-67
2024/01/13 00:58:39;;;;;;;3.08;2.80;;;3.90;99.90;;;;;;5069635;28;20116;-67
2024/01/13 01:01:04;;;;;;;3.45;2.78;;;3.90;99.90;;;;;;5087364;28;20047;-67
2024/01/13 01:03:30;;;;;;;4.97;2.65;;;3.80;99.90;;;;;;5086604;28;20342;-67
2024/01/13 01:05:58;;;;;;;2.88;2.58;;;3.90;99.90;;;;;;5087886;28;20044;-67
2024/01/13 01:08:23;;;;;;;6.05;2.60;;;3.90;99.90;;;;;;5087892;28;20067;-67
2024/01/13 01:10:49;;;;;;;3.55;2.80;;;3.90;99.90;;;;;;5088335;28;20032;-67
2024/01/13 01:13:15;;;;;;;5.50;3.10;;;3.90;99.90;;;;;;5087924;28;20108;-67
2024/01/13 01:15:41;;;;;;;4.30;2.90;;;3.90;99.90;;;;;;5088391;28;20044;-67
2024/01/13 01:18:06;;;;;;;4.43;3.08;;;3.90;99.90;;;;;;5088503;28;20463;-67
2024/01/13 01:20:32;;;;;;;3.25;2.92;;;3.90;99.90;;;;;;5088115;28;20048;-67
2024/01/13 01:22:58;;;;;;;3.58;3.10;;;3.90;99.90;;;;;;5069969;28;20048;-67
2024/01/13 01:25:23;;;;;;;6.07;3.20;;;3.80;99.90;;;;;;5053937;28;20044;-67
2024/01/13 01:27:49;;;;;;;3.67;3.20;;;3.90;99.90;;;;;;5070001;28;20048;-67
2024/01/13 01:30:15;;;;;;;3.92;3.33;;;3.90;99.90;;;;;;5087815;28;20069;-67
2024/01/13 01:32:40;;;;;;;3.80;3.30;;;3.90;99.90;;;;;;5069591;28;20048;-67
2024/01/13 01:35:06;;;;;;;3.83;3.22;;;3.90;99.90;;;;;;5069163;28;20059;-67
2024/01/13 01:37:33;;;;;;;4.68;3.25;;;3.90;99.90;;;;;;5088033;28;20054;-67
2024/01/13 01:39:59;;;;;;;5.15;3.13;;;3.90;99.90;;;;;;5069584;28;20051;-67
2024/01/13 01:42:24;;;;;;;3.30;2.80;;;3.90;99.90;;;;;;5088036;28;20060;-67
2024/01/13 01:44:50;;;;;;;3.65;3.25;;;3.90;99.90;;;;;;5087956;28;20036;-67
2024/01/13 01:47:19;;;;;;;4.82;2.97;;;3.90;99.90;;;;;;5087918;28;20072;-67
2024/01/13 01:49:46;;;;;;;3.38;3.08;;;3.90;99.90;;;;;;5087449;28;20097;-67
2024/01/13 01:52:12;;;;;;;3.05;2.75;;;3.90;99.90;;;;;;5087770;28;20051;-67
2024/01/13 01:54:39;;;;;;;3.25;2.95;;;3.90;99.90;;;;;;5087830;28;20118;-67
2024/01/13 01:57:05;;;;;;;3.67;2.70;;;3.90;99.90;;;;;;5087588;28;20647;-67
2024/01/13 01:59:31;;;;;;;4.63;3.10;;;3.90;99.90;;;;;;5052150;28;20059;-67
2024/01/13 02:01:58;;;;;;;3.70;3.28;;;3.90;99.90;;;;;;5087497;28;20129;-67
2024/01/13 02:04:24;;;;;;;3.05;2.70;;;3.90;99.90;;;;;;5087316;28;20036;-67
2024/01/13 02:06:50;;;;;;;3.05;2.60;;;3.80;99.90;;;;;;5087575;28;20076;-67
2024/01/13 02:09:17;;;;;;;4.20;3.80;;;3.90;99.90;;;;;;5087444;28;20410;-67
2024/01/13 02:11:43;;;;;;;3.70;2.97;;;3.90;99.90;;;;;;5088252;28;20044;-67
2024/01/13 02:14:08;;;;;;;4.35;2.53;;;3.90;99.90;;;;;;5091437;28;20044;-67
2024/01/13 02:16:34;;;;;;;4.15;3.20;;;3.90;99.90;;;;;;5091492;28;20036;-67
2024/01/13 02:19:00;;;;;;;3.47;3.00;;;3.90;99.90;;;;;;5091004;28;20032;-67
2024/01/13 02:21:26;;;;;;;4.03;3.30;;;3.90;99.90;;;;;;5091125;28;20048;-67
2024/01/13 02:23:51;;;;;;;4.60;3.88;;;3.90;99.90;;;;;;5091157;28;20479;-67
2024/01/13 02:26:17;;;;;;;5.40;3.58;;;3.90;99.90;;;;;;5073065;28;20063;-67
2024/01/13 02:28:42;;;;;;;4.97;3.15;;;3.90;99.90;;;;;;5091624;28;20048;-67
2024/01/13 02:31:08;;;;;;;4.28;3.40;;;3.90;99.90;;;;;;5091243;28;20388;-67
2024/01/13 02:33:34;;;;;;;3.90;3.50;;;3.90;99.90;;;;;;5090924;28;20051;-67
2024/01/13 02:36:00;;;;;;;3.67;2.97;;;3.90;99.90;;;;;;5091422;28;20040;-67
2024/01/13 02:38:25;;;;;;;3.40;2.95;;;3.90;99.90;;;;;;5072700;28;20103;-67
2024/01/13 02:40:51;;;;;;;4.45;3.35;;;3.90;99.90;;;;;;5090967;28;20048;-67
2024/01/13 02:43:16;;;;;;;4.13;3.08;;;3.90;99.90;;;;;;5091015;28;20047;-67
2024/01/13 02:45:42;;;;;;;3.78;3.17;;;3.90;99.90;;;;;;5091275;28;20032;-67
2024/01/13 02:48:14;;;;;;;3.85;3.17;;;3.90;99.90;;;;;;5090699;28;20044;-67
2024/01/13 02:50:40;;;;;;;5.38;3.78;;;3.90;99.90;;;;;;5090959;28;20048;-67
2024/01/13 02:53:06;;;;;;;4.40;4.00;;;3.90;99.90;;;;;;5090689;28;20044;-67
2024/01/13 02:55:31;;;;;;;3.83;3.45;;;3.90;99.90;;;;;;5090844;28;20667;-66
2024/01/13 02:57:57;;;;;;;4.03;3.15;;;3.90;99.90;;;;;;5072123;28;20097;-67
2024/01/13 03:00:23;;;;;;;4.38;3.65;;;3.90;99.90;;;;;;5054715;28;20083;-67
2024/01/13 03:02:48;;;;;;;3.45;3.15;;;3.90;99.90;;;;;;5090099;28;20039;-67
2024/01/13 03:05:14;;;;;;;5.97;3.40;;;3.90;99.90;;;;;;5072049;28;20051;-67
2024/01/13 03:07:40;;;;;;;5.20;3.28;;;3.90;99.90;;;;;;5090102;28;20464;-67
2024/01/13 03:10:06;;;;;;;4.85;3.30;;;3.90;99.90;;;;;;5090177;28;20039;-67
2024/01/13 03:12:32;;;;;;;5.40;3.55;;;3.90;99.90;;;;;;5089800;28;20059;-67
2024/01/13 03:14:58;;;;;;;5.25;3.83;;;3.90;99.90;;;;;;5090042;28;20052;-67
2024/01/13 03:17:23;;;;;;;6.03;3.67;;;3.90;99.90;;;;;;5090103;28;20040;-67
2024/01/13 03:19:49;;;;;;;4.53;3.75;;;3.90;99.90;;;;;;5090221;28;20035;-67
2024/01/13 03:22:15;;;;;;;4.40;3.47;;;3.90;99.90;;;;;;5089963;28;20122;-67
2024/01/13 03:24:40;;;;;;;4.55;3.72;;;3.90;99.90;;;;;;5089045;28;20040;-67
2024/01/13 03:27:06;;;;;;;3.95;3.55;;;3.90;99.90;;;;;;5090152;28;20119;-67
2024/01/13 03:29:32;;;;;;;3.92;3.33;;;3.90;99.90;;;;;;5090025;28;20048;-67
2024/01/13 03:31:57;;;;;;;4.60;3.60;;;3.90;99.90;;;;;;5089992;28;20120;-67
2024/01/13 03:34:23;;;;;;;5.28;3.85;;;3.90;99.90;;;;;;5089750;28;20104;-67
2024/01/13 03:36:49;;;;;;;6.28;3.70;;;3.90;99.90;;;;;;5089585;28;20047;-67
2024/01/13 03:39:14;;;;;;;4.53;3.28;;;3.90;99.90;;;;;;5089536;28;20044;-67
2024/01/13 03:41:40;;;;;;;6.78;4.03;;;3.90;99.90;;;;;;5089457;28;20116;-67
2024/01/13 03:44:06;;;;;;;5.28;3.70;;;3.90;99.90;;;;;;5089023;28;20044;-67
2024/01/13 03:46:32;;;;;;;6.32;3.25;;;3.90;99.90;;;;;;5089842;28;20040;-67
2024/01/13 03:48:57;;;;;;;4.50;3.60;;;3.90;99.90;;;;;;5089692;28;20039;-67
2024/01/13 03:51:23;;;;;;;4.82;3.13;;;3.90;99.90;;;;;;5089550;28;20063;-67
2024/01/13 03:53:48;;;;;;;3.63;3.15;;;3.90;99.90;;;;;;5089751;28;20052;-67
2024/01/13 03:56:14;;;;;;;4.53;3.53;;;3.90;99.90;;;;;;5089542;28;20365;-67
2024/01/13 03:58:40;;;;;;;4.55;3.70;;;3.90;99.90;;;;;;5089112;28;20171;-67
2024/01/13 04:01:06;;;;;;;4.88;3.58;;;3.90;99.90;;;;;;5089485;28;20063;-67
2024/01/13 04:03:32;;;;;;;4.75;3.55;;;3.90;99.90;;;;;;5089296;28;20048;-67
2024/01/13 04:05:58;;;;;;;4.65;3.33;;;3.90;99.90;;;;;;5089248;28;20642;-66
2024/01/13 04:08:24;;;;;;;5.60;3.63;;;4.00;99.90;;;;;;5089277;28;20047;-67
2024/01/13 04:10:50;;;;;;;3.22;2.70;;;4.00;99.90;;;;;;5089404;28;20047;-66
2024/01/13 04:13:16;;;;;;;6.53;3.40;;;3.90;99.90;;;;;;5089286;28;20384;-67
2024/01/13 04:15:42;;;;;;;3.35;3.03;;;4.00;99.90;;;;;;5071079;28;20051;-66
2024/01/13 04:18:07;;;;;;;5.85;3.08;;;3.90;99.90;;;;;;5089635;28;20076;-67
2024/01/13 04:20:33;;;;;;;5.13;3.20;;;4.00;99.90;;;;;;5089736;28;20044;-66
2024/01/13 04:22:59;;;;;;;3.85;3.33;;;3.90;99.90;;;;;;5089239;28;20517;-66
2024/01/13 04:25:25;;;;;;;3.60;3.25;;;4.00;99.90;;;;;;5089251;28;20039;-66
2024/01/13 04:27:52;;;;;;;5.78;3.28;;;4.00;99.90;;;;;;5089444;28;20036;-67
2024/01/13 04:30:18;;;;;;;4.45;3.22;;;4.00;99.90;;;;;;5089609;28;20052;-66
2024/01/13 04:32:44;;;;;;;6.30;2.83;;;3.90;99.90;;;;;;5070765;28;20048;-66
2024/01/13 04:35:11;;;;;;;4.72;3.17;;;3.90;99.90;;;;;;5088686;28;20093;-66
2024/01/13 04:37:37;;;;;;;6.95;3.58;;;3.90;99.90;;;;;;5070745;28;20472;-66
2024/01/13 04:40:03;;;;;;;5.95;3.10;;;3.90;99.90;;;;;;5088701;28;20119;-67
2024/01/13 04:42:31;;;;;;;5.30;3.58;;;3.90;99.90;;;;;;5088529;28;20111;-66
2024/01/13 04:44:57;;;;;;;4.57;3.25;;;3.90;99.90;;;;;;5088514;28;20055;-66
2024/01/13 04:47:24;;;;;;;3.55;2.90;;;3.90;99.90;;;;;;5088527;28;20587;-67
2024/01/13 04:49:50;;;;;;;5.68;3.45;;;3.80;99.90;;;;;;5088567;28;20092;-67
2024/01/13 04:52:15;;;;;;;4.18;3.50;;;3.90;99.90;;;;;;5088277;28;20036;-67
2024/01/13 04:54:41;;;;;;;4.43;3.33;;;4.00;99.90;;;;;;5070436;28;20044;-67
2024/01/13 04:57:06;;;;;;;5.32;3.45;;;3.90;99.90;;;;;;5088237;28;20504;-66
2024/01/13 04:59:32;;;;;;;8.95;3.55;;;3.90;99.90;;;;;;5087912;28;20095;-66
2024/01/13 05:01:58;;;;;;;4.18;3.28;;;3.90;99.90;;;;;;5088115;28;20052;-66
2024/01/13 05:04:24;;;;;;;7.60;4.07;;;3.90;99.90;;;;;;5088142;28;20040;-67
2024/01/13 05:06:50;;;;;;;9.70;3.78;;;3.90;99.90;;;;;;5069929;28;20071;-66
2024/01/13 05:09:15;;;;;;;6.15;3.72;;;3.90;99.90;;;;;;5087926;28;20510;-66
2024/01/13 05:11:41;;;;;;;5.18;3.20;;;3.90;99.90;;;;;;5087902;28;20129;-66
2024/01/13 05:14:07;;;;;;;6.72;3.90;;;3.90;99.90;;;;;;5088374;28;20161;-67
2024/01/13 05:16:32;;;;;;;5.47;3.53;;;3.90;99.90;;;;;;5069750;28;20643;-67
2024/01/13 05:18:58;;;;;;;5.03;3.53;;;3.90;99.90;;;;;;5088394;28;20124;-67
2024/01/13 05:21:24;;;;;;;5.50;3.38;;;3.80;99.90;;;;;;5069712;28;20048;-67
2024/01/13 05:23:50;;;;;;;6.13;3.22;;;3.90;99.90;;;;;;5088437;28;20052;-67
2024/01/13 05:26:15;;;;;;;5.43;3.28;;;3.80;99.90;;;;;;5087993;28;20040;-66
2024/01/13 05:28:41;;;;;;;5.95;3.10;;;3.80;99.90;;;;;;5088156;28;20044;-66
2024/01/13 05:31:07;;;;;;;5.40;2.97;;;3.90;99.90;;;;;;5069953;28;20321;-66
2024/01/13 05:33:32;;;;;;;5.45;3.45;;;3.90;99.90;;;;;;5069673;28;20151;-66
2024/01/13 05:35:58;;;;;;;4.65;3.00;;;3.80;99.90;;;;;;5087987;28;20044;-66
2024/01/13 05:38:23;;;;;;;2.78;2.42;;;3.90;99.90;;;;;;5088032;28;20109;-66
2024/01/13 05:40:49;;;;;;;2.83;2.47;;;3.90;99.90;;;;;;5069299;28;20087;-66
2024/01/13 05:43:15;;;;;;;4.20;2.58;;;3.90;99.90;;;;;;5087786;28;20036;-66
2024/01/13 05:45:41;;;;;;;2.70;2.50;;;3.90;99.90;;;;;;5069515;28;20051;-67
2024/01/13 05:48:06;;;;;;;3.47;2.75;;;3.90;99.90;;;;;;5072879;28;20040;-67
2024/01/13 05:50:33;;;;;;;6.20;2.85;;;3.90;99.90;;;;;;5092006;28;20502;-67
2024/01/13 05:52:58;;;;;;;4.60;2.50;;;3.90;99.90;;;;;;5073430;28;20048;-67
2024/01/13 05:55:24;;;;;;;3.03;2.20;;;3.90;99.90;;;;;;5073780;28;20074;-67
2024/01/13 05:57:50;;;;;;;3.45;2.40;;;3.80;99.90;;;;;;5091929;28;20134;-67
2024/01/13 06:00:16;;;;;;;3.55;2.53;;;3.80;99.90;;;;;;5091330;28;20368;-67
2024/01/13 06:02:43;;;;;;;3.88;2.28;;;3.90;99.90;;;;;;5073131;28;20044;-67
2024/01/13 06:05:09;;;;;;;3.08;2.45;;;3.80;99.90;;;;;;5091596;28;20352;-67
2024/01/13 06:07:36;;;;;;;4.68;2.67;;;3.80;99.90;;;;;;5091639;28;20163;-67
2024/01/13 06:10:01;;;;;;;3.58;2.35;;;3.80;99.90;;;;;;5072708;28;20496;-67
2024/01/13 06:12:28;;;;;;;2.97;2.45;;;3.80;99.90;;;;;;5072825;28;20109;-67
2024/01/13 06:14:55;;;;;;;2.78;2.40;;;3.80;99.90;;;;;;5091604;28;20048;-67
2024/01/13 06:17:21;;;;;;;3.55;2.45;;;3.80;99.90;;;;;;5091806;28;20438;-66
2024/01/13 06:19:47;;;;;;;4.07;2.40;;;3.90;99.90;;;;;;5091309;28;20054;-67
2024/01/13 06:22:13;;;;;;;3.95;2.60;;;3.80;99.90;;;;;;5090959;28;20093;-67
2024/01/13 06:24:39;;;;;;;2.97;2.53;;;3.80;99.90;;;;;;5073028;28;20098;-67
2024/01/13 06:27:05;;;;;;;2.50;2.30;;;3.80;99.90;;;;;;5091302;28;20040;-67
2024/01/13 06:29:30;;;;;;;3.22;2.53;;;3.80;99.90;;;;;;5091000;28;20127;-67
2024/01/13 06:31:56;;;;;;;2.60;2.40;;;3.80;99.90;;;;;;5091011;28;20050;-67
2024/01/13 06:34:22;;;;;;;3.45;2.75;;;3.80;99.90;;;;;;5072495;28;20049;-67
2024/01/13 06:36:47;;;;;;;3.33;2.65;;;3.90;99.90;;;;;;5091357;28;20036;-67
2024/01/13 06:39:13;;;;;;;3.40;2.67;;;3.80;99.90;;;;;;5072530;28;20047;-67
2024/01/13 06:41:39;;;;;;;3.60;3.03;;;3.80;99.90;;;;;;5072614;28;20518;-67
2024/01/13 06:44:05;;;;;;;4.32;3.00;;;3.70;99.90;;;;;;5091171;28;20047;-67
2024/01/13 06:46:31;;;;;;;6.22;3.33;;;3.70;99.90;;;;;;5072809;28;20109;-67
2024/01/13 06:48:56;;;;;;;4.47;3.63;;;3.70;99.90;;;;;;5090843;28;20032;-67
2024/01/13 06:51:22;;;;;;;4.72;3.28;;;3.70;99.90;;;;;;5090968;28;20055;-67
2024/01/13 06:53:48;;;;;;;6.97;3.25;;;3.80;99.90;;;;;;5090738;28;20073;-67
2024/01/13 06:56:13;;;;;;;4.45;3.65;;;3.70;99.90;;;;;;5090921;28;20032;-67
2024/01/13 06:58:39;;;;;;;4.20;3.45;;;3.70;99.90;;;;;;5090492;28;20499;-67
2024/01/13 07:01:05;;;;;;;4.22;3.28;;;3.70;99.90;;;;;;5072268;28;20052;-67
2024/01/13 07:03:31;;;;;;;5.15;3.92;;;3.70;99.90;;;;;;5072523;28;20079;-67
2024/01/13 07:05:57;;;;;;;5.93;3.80;;;3.70;99.90;;;;;;5072564;28;20058;-67
2024/01/13 07:08:23;;;;;;;4.40;3.47;;;3.70;99.90;;;;;;5090360;28;20043;-67
2024/01/13 07:10:51;;;;;;;5.13;3.15;;;3.80;99.90;;;;;;5090781;28;20040;-66
2024/01/13 07:13:17;;;;;;;4.82;3.78;;;3.80;99.90;;;;;;5090614;28;20060;-66
2024/01/13 07:15:43;;;;;;;5.18;3.35;;;3.80;99.90;;;;;;5090710;28;20055;-66
2024/01/13 07:18:08;;;;;;;5.28;3.63;;;3.80;99.90;;;;;;5090657;28;20191;-67
2024/01/13 07:20:34;;;;;;;4.25;3.40;;;3.80;99.90;;;;;;5090817;28;20047;-66
2024/01/13 07:23:00;;;;;;;4.15;3.30;;;3.90;99.90;;;;;;5089723;28;20031;-66
2024/01/13 07:25:26;;;;;;;4.43;3.60;;;3.80;99.90;;;;;;5071785;28;20195;-66
2024/01/13 07:27:51;;;;;;;4.40;3.92;;;3.80;99.90;;;;;;5071813;28;20044;-67
2024/01/13 07:30:17;;;;;;;4.55;3.33;;;3.80;99.90;;;;;;5090291;28;20055;-66
2024/01/13 07:32:45;;;;;;;4.53;3.17;;;3.80;99.90;;;;;;5090176;28;20044;-66
2024/01/13 07:35:11;;;;;;;4.22;3.00;;;3.80;99.90;;;;;;5090311;28;20040;-66
2024/01/13 07:37:36;;;;;;;3.75;2.80;;;3.90;99.90;;;;;;5071594;28;20050;-67
2024/01/13 07:40:02;;;;;;;5.53;3.67;;;3.80;99.90;;;;;;5089874;28;20039;-67
2024/01/13 07:42:28;;;;;;;4.05;3.35;;;3.80;99.90;;;;;;5089615;28;20040;-67
2024/01/13 07:44:54;;;;;;;3.33;3.03;;;3.80;99.90;;;;;;5071535;28;20044;-67
2024/01/13 07:47:19;;;;;;;4.50;2.70;;;3.80;99.90;;;;;;5088687;28;20452;-67
2024/01/13 07:49:45;;;;;;;3.72;2.90;;;3.90;99.90;;;;;;5088922;28;20054;-66
2024/01/13 07:52:11;;;;;;;3.00;2.65;;;3.80;99.90;;;;;;5089303;28;20093;-67
2024/01/13 07:54:36;;;;;;;2.78;2.50;;;3.90;99.90;;;;;;5071364;28;20101;-67
2024/01/13 07:57:02;;;;;;;3.85;2.90;;;3.90;99.90;;;;;;5089486;28;20044;-67
2024/01/13 07:59:28;;;;;;;2.85;2.58;;;3.90;99.90;;;;;;5089109;28;20056;-67
2024/01/13 08:01:53;;;;;;;2.90;2.67;;;3.90;99.90;;;;;;5089711;28;20043;-67
2024/01/13 08:04:20;;;;;;;3.70;2.90;;;3.90;99.90;;;;;;5087362;28;20047;-67
2024/01/13 08:06:46;;;;;;;3.75;3.03;;;3.90;99.90;;;;;;5088819;28;20407;-67
2024/01/13 08:09:11;;;;;;;3.55;3.15;;;4.00;99.90;;;;;;5070663;28;20051;-67
2024/01/13 08:11:37;;;;;;;4.25;3.40;;;4.00;99.90;;;;;;5088805;28;20443;-66
2024/01/13 08:14:03;;;;;;;4.82;3.20;;;4.00;99.90;;;;;;5067335;28;20185;-67
2024/01/13 08:16:29;;;;;;;4.43;3.33;;;4.00;99.90;;;;;;5080600;28;20115;-67
2024/01/13 08:18:55;;;;;;;6.38;3.53;;;4.00;99.90;;;;;;5089540;28;20055;-67
2024/01/13 08:21:21;;;;;;;4.40;3.92;;;4.00;99.90;;;;;;5090798;28;20044;-66
2024/01/13 08:23:47;;;;;;;9.00;5.72;;;4.00;99.90;;;;;;5090877;28;20047;-68
2024/01/13 08:26:12;;;;;;;5.93;5.30;;;4.00;99.90;;;;;;5071263;28;20547;-67
2024/01/13 08:28:38;;;;;;;4.65;3.92;;;4.00;99.90;;;;;;5088982;28;20048;-67
2024/01/13 08:31:04;;;;;;;3.25;2.95;;;4.00;99.90;;;;;;5070357;28;20040;-67
2024/01/13 08:33:29;;;;;;;4.00;3.33;;;4.00;99.90;;;;;;5089353;28;20101;-68
2024/01/13 08:35:55;;;;;;;2.92;2.58;;;4.00;99.90;;;;;;5088997;28;20059;-67
2024/01/13 08:38:21;;;;;;;6.88;3.47;;;4.00;99.90;;;;;;5070729;28;20094;-67
2024/01/13 08:40:47;;;;;;;6.05;3.47;;;4.10;99.90;;;;;;5088964;28;20046;-66
2024/01/13 08:43:13;;;;;;;4.65;3.30;;;4.00;99.90;;;;;;5070119;28;20044;-66
2024/01/13 08:45:38;;;;;;;4.60;3.38;;;4.00;99.90;;;;;;5070462;28;20040;-66
2024/01/13 08:48:05;;;;;;;4.47;3.25;;;4.00;99.90;;;;;;5070651;28;20107;-67
2024/01/13 08:50:32;;;;;;;10.32;5.07;;;4.10;99.90;;;;;;5088816;28;20047;-68
2024/01/13 08:52:58;;;;;;;7.18;4.03;;;4.20;99.90;;;;;;5070850;28;20063;-68
2024/01/13 08:55:26;;;;;;;6.80;4.90;;;4.10;99.90;;;;;;5089376;28;20036;-68
2024/01/13 08:57:52;;;;;;;8.90;5.22;;;4.10;99.90;;;;;;5071125;28;20075;-68
2024/01/13 09:00:19;;;;;;;10.50;5.60;;;4.10;99.90;;;;;;5089404;28;20110;-68
2024/01/13 09:02:45;;;;;;;12.40;6.18;;;4.10;99.90;;;;;;5089775;28;20411;-67
2024/01/13 09:05:11;;;;;;;14.95;7.65;;;4.10;99.90;;;;;;5089450;28;20036;-68
2024/01/13 09:07:37;;;;;;;15.07;7.22;;;4.10;99.90;;;;;;5071253;28;20052;-68
2024/01/13 09:10:04;;;;;;;13.93;7.35;;;4.20;99.90;;;;;;5089554;28;20368;-68
2024/01/13 09:12:30;;;;;;;23.20;10.63;;;4.10;99.90;;;;;;5071685;28;20036;-68
2024/01/13 09:14:56;;;;;;;14.15;8.43;;;4.10;99.90;;;;;;5089508;28;20040;-68
2024/01/13 09:17:22;;;;;;;16.55;8.82;;;4.10;99.90;;;;;;5089275;28;20032;-68
2024/01/13 09:19:48;;;;;;;18.27;10.18;;;4.20;99.90;;;;;;5089484;28;20051;-68
2024/01/13 09:22:14;;;;;;;16.83;9.32;;;4.10;99.90;;;;;;5090936;28;20048;-68
2024/01/13 09:24:43;;;;;;;25.58;11.50;;;4.10;99.90;;;;;;5093393;28;20093;-67
2024/01/13 09:27:09;;;;;;;26.95;11.65;;;4.20;99.90;;;;;;5075276;28;20108;-67
2024/01/13 09:29:35;;;;;;;25.40;12.20;;;4.10;99.90;;;;;;5093184;28;20093;-67
2024/01/13 09:32:00;;;;;;;31.42;12.95;;;4.10;99.90;;;;;;5093007;28;20151;-67
2024/01/13 09:34:27;;;;;;;24.50;13.13;;;4.10;99.90;;;;;;5093174;28;20454;-67
2024/01/13 09:36:53;;;;;;;26.10;12.25;;;4.20;99.90;;;;;;5075129;28;20123;-67
2024/01/13 09:39:19;;;;;;;32.45;14.75;;;4.20;99.90;;;;;;5093200;28;20551;-67
2024/01/13 09:41:47;;;;;;;29.40;14.23;;;4.20;99.90;;;;;;5075151;28;20055;-67
2024/01/13 09:44:23;;;;;;;30.90;14.68;;;4.10;99.90;;;;;;5074651;28;20071;-67
2024/01/13 09:46:51;;;;;;;33.85;16.00;;;4.20;99.90;;;;;;5093056;28;20373;-67
2024/01/13 09:49:18;;;;;;;32.13;15.35;;;4.10;99.90;;;;;;5074957;28;20174;-67
2024/01/13 09:51:47;;;;;;;35.33;15.88;;;4.20;99.90;;;;;;5092791;28;20089;-68
2024/01/13 09:54:20;;;;;;;35.20;17.42;;;4.10;99.90;;;;;;5074733;28;20113;-67
2024/01/13 09:56:47;;;;;;;42.78;17.38;;;4.20;99.90;;;;;;5092821;28;20486;-67
2024/01/13 09:59:13;;;;;;;39.05;17.48;;;4.10;99.90;;;;;;5092860;28;20056;-67
2024/01/13 10:01:39;;;;;;;38.13;17.45;;;4.10;99.90;;;;;;5074240;28;20044;-67
2024/01/13 10:04:05;;;;;;;41.40;17.40;;;4.20;99.90;;;;;;5092750;28;20534;-67
2024/01/13 10:06:33;;;;;;;60.15;24.88;;;4.20;99.90;;;;;;5092718;28;20036;-67
2024/01/13 10:08:59;;;;;;;49.85;21.80;;;4.30;99.90;;;;;;5092638;28;20047;-67
2024/01/13 10:11:24;;;;;;;48.47;21.00;;;4.20;99.90;;;;;;5074223;28;20488;-67
2024/01/13 10:14:00;;;;;;;46.30;21.40;;;4.20;99.90;;;;;;5090707;28;20051;-67
2024/01/13 10:16:29;;;;;;;50.35;22.30;;;4.30;99.90;;;;;;5073581;28;20492;-67
2024/01/13 10:19:10;;;;;;;44.92;21.27;;;4.30;99.90;;;;;;5074012;28;20060;-68
2024/01/13 10:21:36;;;;;;;49.33;21.95;;;4.20;99.90;;;;;;5074166;28;20044;-67
2024/01/13 10:24:02;;;;;;;46.33;22.10;;;4.20;99.90;;;;;;5092455;28;20048;-67
2024/01/13 10:26:32;;;;;;;51.88;21.98;;;4.30;99.90;;;;;;5092689;28;20028;-67
2024/01/13 10:28:58;;;;;;;47.63;21.33;;;4.30;99.90;;;;;;5092301;28;20785;-67
2024/01/13 10:31:24;;;;;;;44.70;21.63;;;4.30;99.90;;;;;;5091999;28;20121;-67
2024/01/13 10:33:51;;;;;;;49.00;22.67;;;4.30;99.90;;;;;;5092093;28;20036;-68
2024/01/13 10:36:22;;;;;;;49.33;23.77;;;4.20;99.90;;;;;;5092356;28;20040;-67
2024/01/13 10:38:48;;;;;;;67.60;25.38;;;4.30;99.90;;;;;;5092322;28;20044;-67
2024/01/13 10:41:14;;;;;;;48.83;23.95;;;4.30;99.90;;;;;;5092173;28;20449;-67
2024/01/13 10:43:46;;;;;;;47.53;23.33;;;4.30;99.90;;;;;;5092239;28;20040;-68
2024/01/13 10:46:13;;;;;;;57.17;24.20;;;4.30;99.90;;;;;;5073654;28;20048;-68
2024/01/13 10:48:45;;;;;;;46.03;21.90;;;4.30;99.90;;;;;;5073737;28;20044;-68
2024/01/13 10:51:36;;;;;;;46.70;22.23;;;4.30;99.90;;;;;;5092340;28;20048;-68
2024/01/13 10:54:03;;;;;;;45.50;21.95;;;4.30;99.90;;;;;;5092128;28;20036;-69
2024/01/13 10:56:30;;;;;;;50.20;23.83;;;4.30;99.90;;;;;;5091837;28;20532;-68
2024/01/13 10:58:58;;;;;;;48.75;23.02;;;4.30;99.90;;;;;;5070155;28;20070;-68
2024/01/13 11:01:26;;;;;;;44.85;22.52;;;4.40;99.90;;;;;;5071553;28;20115;-68
2024/01/13 11:03:54;;;;;;;46.88;22.67;;;4.30;99.90;;;;;;5071808;28;20033;-68
2024/01/13 11:06:21;;;;;;;50.00;22.80;;;4.30;99.90;;;;;;5071774;28;20093;-67
2024/01/13 11:08:47;;;;;;;57.85;25.13;;;4.30;99.90;;;;;;5071702;28;20044;-67
2024/01/13 11:11:26;;;;;;;52.92;22.83;;;4.40;99.90;;;;;;5071393;28;20121;-68
2024/01/13 11:14:03;;;;;;;51.33;24.63;;;4.40;99.90;;;;;;5069720;28;20451;-68
2024/01/13 11:16:31;;;;;;;54.08;25.25;;;4.40;99.90;;;;;;5069930;28;20041;-68
2024/01/13 11:18:58;;;;;;;53.78;23.67;;;4.40;99.90;;;;;;5069791;28;20037;-68
2024/01/13 11:21:32;;;;;;;58.95;24.92;;;4.50;99.90;;;;;;5070863;28;20067;-68
2024/01/13 11:24:01;;;;;;;46.92;24.17;;;4.50;99.90;;;;;;5071074;28;20041;-68
2024/01/13 11:26:36;;;;;;;48.25;23.83;;;4.50;99.90;;;;;;5071287;28;20135;-67
2024/01/13 11:29:14;;;;;;;49.03;25.23;;;4.50;99.90;;;;;;5069563;28;20044;-68
2024/01/13 11:31:41;;;;;;;50.88;23.60;;;4.50;99.90;;;;;;5070828;28;20036;-68
2024/01/13 11:34:09;;;;;;;54.15;25.42;;;4.50;99.90;;;;;;5069399;28;20087;-68
2024/01/13 11:36:39;;;;;;;56.25;26.20;;;4.50;99.90;;;;;;5069335;28;20052;-68
2024/01/13 11:39:07;;;;;;;55.05;26.15;;;4.50;99.90;;;;;;5069286;28;20052;-68
2024/01/13 11:41:54;;;;;;;52.28;23.63;;;4.50;99.90;;;;;;5070795;28;20109;-68
2024/01/13 11:44:34;;;;;;;52.20;24.27;;;4.50;99.90;;;;;;5069915;28;20337;-68
2024/01/13 11:47:06;;;;;;;53.50;23.20;;;4.50;99.90;;;;;;5069305;28;20072;-68
2024/01/13 11:49:40;;;;;;;59.42;25.80;;;4.50;99.90;;;;;;5069697;28;20597;-68
2024/01/13 11:52:07;;;;;;;60.45;26.67;;;4.50;99.90;;;;;;5070599;28;20048;-68
2024/01/13 11:54:34;;;;;;;57.85;25.50;;;4.50;99.90;;;;;;5069277;28;20609;-69
2024/01/13 11:57:03;;;;;;;52.45;25.10;;;4.50;99.90;;;;;;5070366;28;20041;-68
2024/01/13 11:59:29;;;;;;;52.72;25.48;;;4.50;99.90;;;;;;5080749;28;20079;-69
2024/01/13 12:01:56;;;;;;;47.75;23.77;;;4.40;99.90;;;;;;5090745;28;20134;-69
2024/01/13 12:04:25;;;;;;;58.83;25.88;;;4.50;99.90;;;;;;5090704;28;20120;-69
2024/01/13 12:06:53;;;;;;;50.20;24.67;;;4.60;99.90;;;;;;5072756;28;20044;-69
2024/01/13 12:09:24;;;;;;;50.75;24.45;;;4.50;99.90;;;;;;5090514;28;20036;-69
2024/01/13 12:11:52;;;;;;;58.10;28.85;;;4.50;99.90;;;;;;5090262;28;20040;-69
2024/01/13 12:14:22;;;;;;;53.53;25.70;;;4.50;99.90;;;;;;5072187;28;20156;-69
2024/01/13 12:16:48;;;;;;;48.53;24.45;;;4.60;99.90;;;;;;5090481;28;20119;-69
2024/01/13 12:19:14;;;;;;;51.45;24.08;;;4.60;99.90;;;;;;5072445;28;20131;-69
2024/01/13 12:21:40;;;;;;;47.53;23.75;;;4.60;99.90;;;;;;5072073;28;20040;-68
2024/01/13 12:24:06;;;;;;;45.70;23.65;;;4.60;99.90;;;;;;5072594;28;20048;-69
2024/01/13 12:26:32;;;;;;;58.15;25.40;;;4.50;99.90;;;;;;5055437;28;20123;-69
2024/01/13 12:28:59;;;;;;;49.20;24.10;;;4.50;99.90;;;;;;5090925;28;20139;-69
2024/01/13 12:31:25;;;;;;;51.22;25.67;;;4.60;99.90;;;;;;5072172;28;20499;-69
2024/01/13 12:33:52;;;;;;;51.97;24.23;;;4.50;99.90;;;;;;5090329;28;20052;-69
2024/01/13 12:36:18;;;;;;;50.35;24.75;;;4.60;99.90;;;;;;5090297;28;20101;-69
2024/01/13 12:38:44;;;;;;;50.72;23.98;;;4.60;99.90;;;;;;5072068;28;20254;-68
2024/01/13 12:41:10;;;;;;;51.72;24.17;;;4.70;99.90;;;;;;5089967;28;20043;-69
2024/01/13 12:43:38;;;;;;;51.05;24.02;;;4.60;99.90;;;;;;5071700;28;20483;-69
2024/01/13 12:46:03;;;;;;;50.20;24.17;;;4.60;99.90;;;;;;5090151;28;20446;-69